sensor_id;sensor_type;location;lat;lon;timestamp;temperature;humidity
48376;DHT22;34178;50.904;11.560;2023-02-02T00:01:50;3.50;99.90
48376;DHT22;34178;50.904;11.560;2023-02-02T00:04:19;3.50;99.90
48376;DHT22;34178;50.904;11.560;2023-02-02T00:06:45;3.60;99.90
48376;DHT22;34178;50.904;11.560;2023-02-02T00:09:13;3.70;99.90
48376;DHT22;34178;50.904;11.560;2023-02-02T00:11:42;3.90;99.90
48376;DHT22;34178;50.904;11.560;2023-02-02T00:14:08;3.90;99.90
48376;DHT22;34178;50.904;11.560;2023-02-02T00:16:45;3.90;99.90
48376;DHT22;34178;50.904;11.560;2023-02-02T00:19:31;3.90;99.90
48376;DHT22;34178;50.904;11.560;2023-02-02T00:21:58;3.90;99.90
48376;DHT22;34178;50.904;11.560;2023-02-02T00:24:23;4.00;99.90
48376;DHT22;34178;50.904;11.560;2023-02-02T00:26:52;4.00;99.90
48376;DHT22;34178;50.904;11.560;2023-02-02T00:29:21;4.10;99.90
48376;DHT22;34178;50.904;11.560;2023-02-02T00:31:47;4.10;99.90
48376;DHT22;34178;50.904;11.560;2023-02-02T00:34:13;4.20;99.90
48376;DHT22;34178;50.904;11.560;2023-02-02T00:36:40;4.20;99.90
48376;DHT22;34178;50.904;11.560;2023-02-02T00:39:06;4.20;99.90
48376;DHT22;34178;50.904;11.560;2023-02-02T00:41:32;4.10;99.90
48376;DHT22;34178;50.904;11.560;2023-02-02T00:43:58;4.10;99.90
48376;DHT22;34178;50.904;11.560;2023-02-02T00:46:42;4.00;99.90
48376;DHT22;34178;50.904;11.560;2023-02-02T00:49:08;4.00;99.90
48376;DHT22;34178;50.904;11.560;2023-02-02T00:51:35;4.10;99.90
48376;DHT22;34178;50.904;11.560;2023-02-02T00:54:02;4.20;99.90
48376;DHT22;34178;50.904;11.560;2023-02-02T00:56:28;4.20;99.90
48376;DHT22;34178;50.904;11.560;2023-02-02T00:58:54;4.20;99.90
48376;DHT22;34178;50.904;11.560;2023-02-02T01:01:20;4.10;99.90
48376;DHT22;34178;50.904;11.560;2023-02-02T01:03:50;4.20;99.90
48376;DHT22;34178;50.904;11.560;2023-02-02T01:06:16;4.20;99.90
48376;DHT22;34178;50.904;11.560;2023-02-02T01:08:42;4.20;99.90
48376;DHT22;34178;50.904;11.560;2023-02-02T01:11:08;4.20;99.90
48376;DHT22;34178;50.904;11.560;2023-02-02T01:13:34;4.20;99.90
48376;DHT22;34178;50.904;11.560;2023-02-02T01:16:01;4.20;99.90
48376;DHT22;34178;50.904;11.560;2023-02-02T01:18:27;4.20;99.90
48376;DHT22;34178;50.904;11.560;2023-02-02T01:21:02;4.20;99.90
48376;DHT22;34178;50.904;11.560;2023-02-02T01:23:29;4.20;99.90
48376;DHT22;34178;50.904;11.560;2023-02-02T01:26:00;4.10;99.90
48376;DHT22;34178;50.904;11.560;2023-02-02T01:28:27;4.20;99.90
48376;DHT22;34178;50.904;11.560;2023-02-02T01:30:54;4.20;99.90
48376;DHT22;34178;50.904;11.560;2023-02-02T01:33:19;4.30;99.90
48376;DHT22;34178;50.904;11.560;2023-02-02T01:35:50;4.20;99.90
48376;DHT22;34178;50.904;11.560;2023-02-02T01:38:16;4.10;99.90
48376;DHT22;34178;50.904;11.560;2023-02-02T01:40:46;4.10;99.90
48376;DHT22;34178;50.904;11.560;2023-02-02T01:43:30;4.00;99.90
48376;DHT22;34178;50.904;11.560;2023-02-02T01:45:57;4.00;99.90
48376;DHT22;34178;50.904;11.560;2023-02-02T01:48:30;4.00;99.90
48376;DHT22;34178;50.904;11.560;2023-02-02T01:51:02;3.90;99.90
48376;DHT22;34178;50.904;11.560;2023-02-02T01:53:29;3.80;99.90
48376;DHT22;34178;50.904;11.560;2023-02-02T01:55:55;3.80;99.90
48376;DHT22;34178;50.904;11.560;2023-02-02T01:58:25;3.80;99.90
48376;DHT22;34178;50.904;11.560;2023-02-02T02:00:52;3.70;99.90
48376;DHT22;34178;50.904;11.560;2023-02-02T02:03:22;3.70;99.90
48376;DHT22;34178;50.904;11.560;2023-02-02T02:06:15;3.70;99.90
48376;DHT22;34178;50.904;11.560;2023-02-02T02:08:59;3.60;99.90
48376;DHT22;34178;50.904;11.560;2023-02-02T02:11:27;3.50;99.90
48376;DHT22;34178;50.904;11.560;2023-02-02T02:17:44;3.30;99.90
48376;DHT22;34178;50.904;11.560;2023-02-02T02:22:54;3.30;99.90
48376;DHT22;34178;50.904;11.560;2023-02-02T02:34:19;3.30;99.90
48376;DHT22;34178;50.904;11.560;2023-02-02T02:37:08;3.30;99.90
48376;DHT22;34178;50.904;11.560;2023-02-02T02:39:43;3.30;99.90
48376;DHT22;34178;50.904;11.560;2023-02-02T02:42:38;3.30;99.90
48376;DHT22;34178;50.904;11.560;2023-02-02T02:45:34;3.20;99.90
48376;DHT22;34178;50.904;11.560;2023-02-02T02:48:02;3.10;99.90
48376;DHT22;34178;50.904;11.560;2023-02-02T02:50:28;3.30;99.90
48376;DHT22;34178;50.904;11.560;2023-02-02T02:53:02;3.30;99.90
48376;DHT22;34178;50.904;11.560;2023-02-02T02:55:41;3.30;99.90
48376;DHT22;34178;50.904;11.560;2023-02-02T02:58:19;3.30;99.90
48376;DHT22;34178;50.904;11.560;2023-02-02T03:08:54;3.20;99.90
48376;DHT22;34178;50.904;11.560;2023-02-02T03:11:22;3.20;99.90
48376;DHT22;34178;50.904;11.560;2023-02-02T03:13:48;3.20;99.90
48376;DHT22;34178;50.904;11.560;2023-02-02T03:16:15;3.20;99.90
48376;DHT22;34178;50.904;11.560;2023-02-02T03:18:41;3.20;99.90
48376;DHT22;34178;50.904;11.560;2023-02-02T03:21:06;3.20;99.90
48376;DHT22;34178;50.904;11.560;2023-02-02T03:23:32;3.40;99.90
48376;DHT22;34178;50.904;11.560;2023-02-02T03:25:58;3.60;99.90
48376;DHT22;34178;50.904;11.560;2023-02-02T03:28:24;3.60;99.90
48376;DHT22;34178;50.904;11.560;2023-02-02T03:30:51;3.60;99.90
48376;DHT22;34178;50.904;11.560;2023-02-02T03:33:17;3.60;99.90
48376;DHT22;34178;50.904;11.560;2023-02-02T03:35:44;3.60;99.90
48376;DHT22;34178;50.904;11.560;2023-02-02T03:38:10;3.60;99.90
48376;DHT22;34178;50.904;11.560;2023-02-02T03:40:37;3.60;99.90
48376;DHT22;34178;50.904;11.560;2023-02-02T03:46:25;3.70;99.90
48376;DHT22;34178;50.904;11.560;2023-02-02T03:48:51;3.70;99.90
48376;DHT22;34178;50.904;11.560;2023-02-02T03:51:17;3.70;99.90
48376;DHT22;34178;50.904;11.560;2023-02-02T03:53:42;3.60;99.90
48376;DHT22;34178;50.904;11.560;2023-02-02T03:56:14;3.70;99.90
48376;DHT22;34178;50.904;11.560;2023-02-02T03:58:40;3.70;99.90
48376;DHT22;34178;50.904;11.560;2023-02-02T04:01:09;3.70;99.90
48376;DHT22;34178;50.904;11.560;2023-02-02T04:03:58;3.60;99.90
48376;DHT22;34178;50.904;11.560;2023-02-02T04:06:24;3.70;99.90
48376;DHT22;34178;50.904;11.560;2023-02-02T04:08:50;3.70;99.90
48376;DHT22;34178;50.904;11.560;2023-02-02T04:11:17;3.60;99.90
48376;DHT22;34178;50.904;11.560;2023-02-02T04:16:18;3.80;99.90
48376;DHT22;34178;50.904;11.560;2023-02-02T04:18:44;3.70;99.90
48376;DHT22;34178;50.904;11.560;2023-02-02T04:21:09;3.70;99.90
48376;DHT22;34178;50.904;11.560;2023-02-02T04:23:36;3.80;99.90
48376;DHT22;34178;50.904;11.560;2023-02-02T04:26:02;3.90;99.90
48376;DHT22;34178;50.904;11.560;2023-02-02T04:28:28;3.90;99.90
48376;DHT22;34178;50.904;11.560;2023-02-02T04:30:54;3.80;99.90
48376;DHT22;34178;50.904;11.560;2023-02-02T04:33:21;3.80;99.90
48376;DHT22;34178;50.904;11.560;2023-02-02T04:35:47;3.80;99.90
48376;DHT22;34178;50.904;11.560;2023-02-02T04:38:13;3.80;99.90
48376;DHT22;34178;50.904;11.560;2023-02-02T04:40:40;3.80;99.90
48376;DHT22;34178;50.904;11.560;2023-02-02T04:43:06;3.80;99.90
48376;DHT22;34178;50.904;11.560;2023-02-02T04:45:33;3.80;99.90
48376;DHT22;34178;50.904;11.560;2023-02-02T04:47:59;3.70;99.90
48376;DHT22;34178;50.904;11.560;2023-02-02T04:50:25;3.70;99.90
48376;DHT22;34178;50.904;11.560;2023-02-02T04:52:51;3.70;99.90
48376;DHT22;34178;50.904;11.560;2023-02-02T04:55:16;3.70;99.90
48376;DHT22;34178;50.904;11.560;2023-02-02T04:57:42;3.70;99.90
48376;DHT22;34178;50.904;11.560;2023-02-02T05:00:09;3.70;99.90
48376;DHT22;34178;50.904;11.560;2023-02-02T05:05:13;3.60;99.90
48376;DHT22;34178;50.904;11.560;2023-02-02T05:07:39;3.70;99.90
48376;DHT22;34178;50.904;11.560;2023-02-02T05:10:06;3.70;99.90
48376;DHT22;34178;50.904;11.560;2023-02-02T05:12:32;3.80;99.90
48376;DHT22;34178;50.904;11.560;2023-02-02T05:14:57;3.80;99.90
48376;DHT22;34178;50.904;11.560;2023-02-02T05:17:26;3.70;99.90
48376;DHT22;34178;50.904;11.560;2023-02-02T05:19:51;3.60;99.90
48376;DHT22;34178;50.904;11.560;2023-02-02T05:24:52;3.80;99.90
48376;DHT22;34178;50.904;11.560;2023-02-02T05:27:18;3.80;99.90
48376;DHT22;34178;50.904;11.560;2023-02-02T05:29:45;3.70;99.90
48376;DHT22;34178;50.904;11.560;2023-02-02T05:34:46;3.60;99.90
48376;DHT22;34178;50.904;11.560;2023-02-02T05:37:12;3.60;99.90
48376;DHT22;34178;50.904;11.560;2023-02-02T05:39:38;3.60;99.90
48376;DHT22;34178;50.904;11.560;2023-02-02T05:55:00;3.60;99.90
48376;DHT22;34178;50.904;11.560;2023-02-02T05:57:26;3.80;99.90
48376;DHT22;34178;50.904;11.560;2023-02-02T05:59:53;3.70;99.90
48376;DHT22;34178;50.904;11.560;2023-02-02T06:05:07;3.50;99.90
48376;DHT22;34178;50.904;11.560;2023-02-02T06:07:32;3.40;99.90
48376;DHT22;34178;50.904;11.560;2023-02-02T06:09:58;3.40;99.90
48376;DHT22;34178;50.904;11.560;2023-02-02T06:17:35;3.50;99.90
48376;DHT22;34178;50.904;11.560;2023-02-02T06:20:00;3.60;99.90
48376;DHT22;34178;50.904;11.560;2023-02-02T06:25:01;3.60;99.90
48376;DHT22;34178;50.904;11.560;2023-02-02T06:27:30;3.50;99.90
48376;DHT22;34178;50.904;11.560;2023-02-02T06:29:56;3.40;99.90
48376;DHT22;34178;50.904;11.560;2023-02-02T06:34:57;3.50;99.90
48376;DHT22;34178;50.904;11.560;2023-02-02T06:37:22;3.40;99.90
48376;DHT22;34178;50.904;11.560;2023-02-02T06:39:48;3.50;99.90
48376;DHT22;34178;50.904;11.560;2023-02-02T06:42:14;3.50;99.90
48376;DHT22;34178;50.904;11.560;2023-02-02T06:44:39;3.50;99.90
48376;DHT22;34178;50.904;11.560;2023-02-02T06:47:05;3.50;99.90
48376;DHT22;34178;50.904;11.560;2023-02-02T06:49:30;3.60;99.90
48376;DHT22;34178;50.904;11.560;2023-02-02T06:51:56;3.60;99.90
48376;DHT22;34178;50.904;11.560;2023-02-02T06:54:22;3.60;99.90
48376;DHT22;34178;50.904;11.560;2023-02-02T06:56:48;3.60;99.90
48376;DHT22;34178;50.904;11.560;2023-02-02T06:59:13;3.70;99.90
48376;DHT22;34178;50.904;11.560;2023-02-02T07:04:16;3.80;99.90
48376;DHT22;34178;50.904;11.560;2023-02-02T07:06:42;3.90;99.90
48376;DHT22;34178;50.904;11.560;2023-02-02T07:09:08;3.90;99.90
48376;DHT22;34178;50.904;11.560;2023-02-02T07:11:34;3.90;99.90
48376;DHT22;34178;50.904;11.560;2023-02-02T07:14:01;3.90;99.90
48376;DHT22;34178;50.904;11.560;2023-02-02T07:16:27;4.00;99.90
48376;DHT22;34178;50.904;11.560;2023-02-02T07:18:53;4.10;99.90
48376;DHT22;34178;50.904;11.560;2023-02-02T07:21:22;4.10;99.90
48376;DHT22;34178;50.904;11.560;2023-02-02T07:23:48;4.20;99.90
48376;DHT22;34178;50.904;11.560;2023-02-02T07:26:16;4.20;99.90
48376;DHT22;34178;50.904;11.560;2023-02-02T07:28:42;4.20;99.90
48376;DHT22;34178;50.904;11.560;2023-02-02T07:31:16;4.30;99.90
48376;DHT22;34178;50.904;11.560;2023-02-02T07:36:19;4.30;99.90
48376;DHT22;34178;50.904;11.560;2023-02-02T07:38:47;4.40;99.90
48376;DHT22;34178;50.904;11.560;2023-02-02T07:41:13;4.40;99.90
48376;DHT22;34178;50.904;11.560;2023-02-02T07:43:39;4.40;99.90
48376;DHT22;34178;50.904;11.560;2023-02-02T07:46:06;4.50;99.90
48376;DHT22;34178;50.904;11.560;2023-02-02T07:48:35;4.50;99.90
48376;DHT22;34178;50.904;11.560;2023-02-02T07:51:06;4.60;99.90
48376;DHT22;34178;50.904;11.560;2023-02-02T07:53:32;4.70;99.90
48376;DHT22;34178;50.904;11.560;2023-02-02T07:58:34;4.70;99.90
48376;DHT22;34178;50.904;11.560;2023-02-02T08:01:01;4.70;99.90
48376;DHT22;34178;50.904;11.560;2023-02-02T08:06:33;4.70;99.90
48376;DHT22;34178;50.904;11.560;2023-02-02T08:09:00;4.70;99.90
48376;DHT22;34178;50.904;11.560;2023-02-02T08:11:27;4.80;99.90
48376;DHT22;34178;50.904;11.560;2023-02-02T08:24:14;4.90;99.90
48376;DHT22;34178;50.904;11.560;2023-02-02T08:26:40;5.00;99.90
48376;DHT22;34178;50.904;11.560;2023-02-02T08:29:07;5.00;99.90
48376;DHT22;34178;50.904;11.560;2023-02-02T08:31:35;5.00;99.90
48376;DHT22;34178;50.904;11.560;2023-02-02T08:34:00;5.10;99.90
48376;DHT22;34178;50.904;11.560;2023-02-02T08:36:28;5.00;99.90
48376;DHT22;34178;50.904;11.560;2023-02-02T08:38:54;5.00;99.90
48376;DHT22;34178;50.904;11.560;2023-02-02T08:41:22;5.10;99.90
48376;DHT22;34178;50.904;11.560;2023-02-02T08:59:29;5.10;99.90
48376;DHT22;34178;50.904;11.560;2023-02-02T09:20:03;4.90;99.90
48376;DHT22;34178;50.904;11.560;2023-02-02T09:59:00;4.80;99.90
48376;DHT22;34178;50.904;11.560;2023-02-02T10:01:33;4.70;99.90
48376;DHT22;34178;50.904;11.560;2023-02-02T10:17:50;4.60;99.90
48376;DHT22;34178;50.904;11.560;2023-02-02T10:25:45;4.40;99.90
48376;DHT22;34178;50.904;11.560;2023-02-02T10:28:18;4.50;99.90
48376;DHT22;34178;50.904;11.560;2023-02-02T10:30:49;4.50;99.90
48376;DHT22;34178;50.904;11.560;2023-02-02T10:38:50;4.30;99.90
48376;DHT22;34178;50.904;11.560;2023-02-02T10:47:44;4.10;99.90
48376;DHT22;34178;50.904;11.560;2023-02-02T10:52:52;4.00;99.90
48376;DHT22;34178;50.904;11.560;2023-02-02T10:55:20;3.90;99.90
48376;DHT22;34178;50.904;11.560;2023-02-02T11:03:12;4.00;99.90
48376;DHT22;34178;50.904;11.560;2023-02-02T11:05:38;4.00;99.90
48376;DHT22;34178;50.904;11.560;2023-02-02T11:08:34;4.00;99.90
48376;DHT22;34178;50.904;11.560;2023-02-02T11:11:28;4.20;99.90
48376;DHT22;34178;50.904;11.560;2023-02-02T11:26:58;4.30;99.90
48376;DHT22;34178;50.904;11.560;2023-02-02T11:37:22;4.50;99.90
48376;DHT22;34178;50.904;11.560;2023-02-02T11:39:49;4.50;99.90
48376;DHT22;34178;50.904;11.560;2023-02-02T11:50:33;4.70;99.90
48376;DHT22;34178;50.904;11.560;2023-02-02T11:52:59;4.70;99.90
48376;DHT22;34178;50.904;11.560;2023-02-02T11:55:28;4.80;99.90
48376;DHT22;34178;50.904;11.560;2023-02-02T12:00:51;4.90;99.90
48376;DHT22;34178;50.904;11.560;2023-02-02T12:05:54;4.90;99.90
48376;DHT22;34178;50.904;11.560;2023-02-02T12:08:20;5.00;99.90
48376;DHT22;34178;50.904;11.560;2023-02-02T12:10:58;4.90;99.90
48376;DHT22;34178;50.904;11.560;2023-02-02T12:13:39;4.90;99.90
48376;DHT22;34178;50.904;11.560;2023-02-02T12:19:48;5.10;99.90
48376;DHT22;34178;50.904;11.560;2023-02-02T12:25:04;5.30;99.90
48376;DHT22;34178;50.904;11.560;2023-02-02T12:27:52;5.20;99.90
48376;DHT22;34178;50.904;11.560;2023-02-02T12:36:37;5.10;99.90
48376;DHT22;34178;50.904;11.560;2023-02-02T12:55:03;5.20;99.90
48376;DHT22;34178;50.904;11.560;2023-02-02T13:00:39;5.10;99.90
48376;DHT22;34178;50.904;11.560;2023-02-02T13:08:27;5.00;99.90
48376;DHT22;34178;50.904;11.560;2023-02-02T13:11:02;5.00;99.90
48376;DHT22;34178;50.904;11.560;2023-02-02T13:18:44;4.90;99.90
48376;DHT22;34178;50.904;11.560;2023-02-02T13:21:16;5.00;99.90
48376;DHT22;34178;50.904;11.560;2023-02-02T13:24:13;5.00;99.90
48376;DHT22;34178;50.904;11.560;2023-02-02T13:26:42;4.90;99.90
48376;DHT22;34178;50.904;11.560;2023-02-02T13:34:21;4.90;99.90
48376;DHT22;34178;50.904;11.560;2023-02-02T13:39:43;4.80;99.90
48376;DHT22;34178;50.904;11.560;2023-02-02T13:50:02;4.70;99.90
48376;DHT22;34178;50.904;11.560;2023-02-02T13:52:46;4.70;99.90
48376;DHT22;34178;50.904;11.560;2023-02-02T13:58:57;4.70;99.90
48376;DHT22;34178;50.904;11.560;2023-02-02T14:01:29;4.70;99.90
48376;DHT22;34178;50.904;11.560;2023-02-02T14:03:56;4.60;99.90
48376;DHT22;34178;50.904;11.560;2023-02-02T14:06:24;4.70;99.90
48376;DHT22;34178;50.904;11.560;2023-02-02T14:08:59;4.70;99.90
48376;DHT22;34178;50.904;11.560;2023-02-02T14:51:26;4.60;99.90
48376;DHT22;34178;50.904;11.560;2023-02-02T14:54:05;4.60;99.90
48376;DHT22;34178;50.904;11.560;2023-02-02T14:56:46;4.60;99.90
48376;DHT22;34178;50.904;11.560;2023-02-02T14:59:19;4.60;99.90
48376;DHT22;34178;50.904;11.560;2023-02-02T17:06:06;4.40;99.90
48376;DHT22;34178;50.904;11.560;2023-02-02T17:08:34;4.40;99.90
48376;DHT22;34178;50.904;11.560;2023-02-02T17:15:57;4.40;99.90
48376;DHT22;34178;50.904;11.560;2023-02-02T17:18:24;4.30;99.90
48376;DHT22;34178;50.904;11.560;2023-02-02T17:20:50;4.30;99.90
48376;DHT22;34178;50.904;11.560;2023-02-02T17:23:23;4.30;99.90
48376;DHT22;34178;50.904;11.560;2023-02-02T17:25:49;4.30;99.90
48376;DHT22;34178;50.904;11.560;2023-02-02T17:28:22;4.30;99.90
48376;DHT22;34178;50.904;11.560;2023-02-02T17:31:01;4.20;99.90
48376;DHT22;34178;50.904;11.560;2023-02-02T17:33:27;4.20;99.90
48376;DHT22;34178;50.904;11.560;2023-02-02T17:35:53;4.20;99.90
48376;DHT22;34178;50.904;11.560;2023-02-02T17:38:19;4.20;99.90
48376;DHT22;34178;50.904;11.560;2023-02-02T17:40:46;4.30;99.90
48376;DHT22;34178;50.904;11.560;2023-02-02T17:43:12;4.20;99.90
48376;DHT22;34178;50.904;11.560;2023-02-02T17:45:38;4.20;99.90
48376;DHT22;34178;50.904;11.560;2023-02-02T17:48:05;4.20;99.90
48376;DHT22;34178;50.904;11.560;2023-02-02T17:50:31;4.20;99.90
48376;DHT22;34178;50.904;11.560;2023-02-02T17:52:57;4.20;99.90
48376;DHT22;34178;50.904;11.560;2023-02-02T17:55:36;4.20;99.90
48376;DHT22;34178;50.904;11.560;2023-02-02T17:58:04;4.20;99.90
48376;DHT22;34178;50.904;11.560;2023-02-02T18:00:29;4.10;99.90
48376;DHT22;34178;50.904;11.560;2023-02-02T18:05:45;4.20;99.90
48376;DHT22;34178;50.904;11.560;2023-02-02T18:08:11;4.20;99.90
48376;DHT22;34178;50.904;11.560;2023-02-02T18:10:37;4.20;99.90
48376;DHT22;34178;50.904;11.560;2023-02-02T18:13:03;4.10;99.90
48376;DHT22;34178;50.904;11.560;2023-02-02T18:15:29;4.10;99.90
48376;DHT22;34178;50.904;11.560;2023-02-02T18:17:55;4.10;99.90
48376;DHT22;34178;50.904;11.560;2023-02-02T18:20:21;4.10;99.90
48376;DHT22;34178;50.904;11.560;2023-02-02T18:22:50;4.10;99.90
48376;DHT22;34178;50.904;11.560;2023-02-02T18:25:16;4.10;99.90
48376;DHT22;34178;50.904;11.560;2023-02-02T18:27:41;4.10;99.90
48376;DHT22;34178;50.904;11.560;2023-02-02T18:30:09;4.00;99.90
48376;DHT22;34178;50.904;11.560;2023-02-02T18:32:39;4.10;99.90
48376;DHT22;34178;50.904;11.560;2023-02-02T18:35:07;4.10;99.90
48376;DHT22;34178;50.904;11.560;2023-02-02T18:37:33;4.10;99.90
48376;DHT22;34178;50.904;11.560;2023-02-02T18:39:59;4.10;99.90
48376;DHT22;34178;50.904;11.560;2023-02-02T18:42:25;4.10;99.90
48376;DHT22;34178;50.904;11.560;2023-02-02T18:44:55;4.10;99.90
48376;DHT22;34178;50.904;11.560;2023-02-02T18:47:21;4.10;99.90
48376;DHT22;34178;50.904;11.560;2023-02-02T18:49:46;4.10;99.90
48376;DHT22;34178;50.904;11.560;2023-02-02T18:52:12;4.10;99.90
48376;DHT22;34178;50.904;11.560;2023-02-02T18:54:38;4.10;99.90
48376;DHT22;34178;50.904;11.560;2023-02-02T18:57:03;4.10;99.90
48376;DHT22;34178;50.904;11.560;2023-02-02T18:59:29;4.10;99.90
48376;DHT22;34178;50.904;11.560;2023-02-02T19:01:56;4.00;99.90
48376;DHT22;34178;50.904;11.560;2023-02-02T19:04:22;4.00;99.90
48376;DHT22;34178;50.904;11.560;2023-02-02T19:06:48;4.00;99.90
48376;DHT22;34178;50.904;11.560;2023-02-02T19:09:32;4.00;99.90
48376;DHT22;34178;50.904;11.560;2023-02-02T19:11:58;4.00;99.90
48376;DHT22;34178;50.904;11.560;2023-02-02T19:14:33;4.00;99.90
48376;DHT22;34178;50.904;11.560;2023-02-02T19:19:44;3.90;99.90
48376;DHT22;34178;50.904;11.560;2023-02-02T19:22:21;3.90;99.90
48376;DHT22;34178;50.904;11.560;2023-02-02T19:24:47;3.90;99.90
48376;DHT22;34178;50.904;11.560;2023-02-02T19:27:19;3.90;99.90
48376;DHT22;34178;50.904;11.560;2023-02-02T19:29:47;3.90;99.90
48376;DHT22;34178;50.904;11.560;2023-02-02T19:32:16;3.90;99.90
48376;DHT22;34178;50.904;11.560;2023-02-02T19:34:43;3.80;99.90
48376;DHT22;34178;50.904;11.560;2023-02-02T19:37:25;3.80;99.90
48376;DHT22;34178;50.904;11.560;2023-02-02T19:40:16;3.80;99.90
48376;DHT22;34178;50.904;11.560;2023-02-02T19:43:13;3.70;99.90
48376;DHT22;34178;50.904;11.560;2023-02-02T19:45:33;3.60;99.90
48376;DHT22;34178;50.904;11.560;2023-02-02T19:48:01;3.50;99.90
48376;DHT22;34178;50.904;11.560;2023-02-02T19:50:36;3.50;99.90
48376;DHT22;34178;50.904;11.560;2023-02-02T19:53:17;3.40;99.90
48376;DHT22;34178;50.904;11.560;2023-02-02T19:55:44;3.30;99.90
48376;DHT22;34178;50.904;11.560;2023-02-02T19:58:19;3.30;99.90
48376;DHT22;34178;50.904;11.560;2023-02-02T20:00:46;3.30;99.90
48376;DHT22;34178;50.904;11.560;2023-02-02T20:03:28;3.20;99.90
48376;DHT22;34178;50.904;11.560;2023-02-02T20:06:02;3.20;99.90
48376;DHT22;34178;50.904;11.560;2023-02-02T20:08:39;3.20;99.90
48376;DHT22;34178;50.904;11.560;2023-02-02T20:13:48;3.20;99.90
48376;DHT22;34178;50.904;11.560;2023-02-02T20:16:19;3.20;99.90
48376;DHT22;34178;50.904;11.560;2023-02-02T20:18:47;3.10;99.90
48376;DHT22;34178;50.904;11.560;2023-02-02T20:21:43;3.20;99.90
48376;DHT22;34178;50.904;11.560;2023-02-02T20:24:34;3.20;99.90
48376;DHT22;34178;50.904;11.560;2023-02-02T20:27:15;3.10;99.90
48376;DHT22;34178;50.904;11.560;2023-02-02T20:29:44;3.10;99.90
48376;DHT22;34178;50.904;11.560;2023-02-02T20:32:27;3.10;99.90
48376;DHT22;34178;50.904;11.560;2023-02-02T20:34:56;3.00;99.90
48376;DHT22;34178;50.904;11.560;2023-02-02T20:37:28;3.10;99.90
48376;DHT22;34178;50.904;11.560;2023-02-02T20:39:59;3.10;99.90
48376;DHT22;34178;50.904;11.560;2023-02-02T20:42:26;3.10;99.90
48376;DHT22;34178;50.904;11.560;2023-02-02T20:44:52;3.10;99.90
48376;DHT22;34178;50.904;11.560;2023-02-02T20:47:18;3.10;99.90
48376;DHT22;34178;50.904;11.560;2023-02-02T20:49:45;3.10;99.90
48376;DHT22;34178;50.904;11.560;2023-02-02T20:52:13;3.10;99.90
48376;DHT22;34178;50.904;11.560;2023-02-02T20:54:46;3.10;99.90
48376;DHT22;34178;50.904;11.560;2023-02-02T20:57:12;3.10;99.90
48376;DHT22;34178;50.904;11.560;2023-02-02T20:59:38;3.10;99.90
48376;DHT22;34178;50.904;11.560;2023-02-02T21:02:04;3.10;99.90
48376;DHT22;34178;50.904;11.560;2023-02-02T21:04:30;3.10;99.90
48376;DHT22;34178;50.904;11.560;2023-02-02T21:06:56;3.20;99.90
48376;DHT22;34178;50.904;11.560;2023-02-02T21:09:24;3.20;99.90
48376;DHT22;34178;50.904;11.560;2023-02-02T21:11:50;3.20;99.90
48376;DHT22;34178;50.904;11.560;2023-02-02T21:14:16;3.20;99.90
48376;DHT22;34178;50.904;11.560;2023-02-02T21:16:42;3.20;99.90
48376;DHT22;34178;50.904;11.560;2023-02-02T21:19:08;3.10;99.90
48376;DHT22;34178;50.904;11.560;2023-02-02T21:21:33;3.20;99.90
48376;DHT22;34178;50.904;11.560;2023-02-02T21:23:59;3.20;99.90
48376;DHT22;34178;50.904;11.560;2023-02-02T21:26:25;3.20;99.90
48376;DHT22;34178;50.904;11.560;2023-02-02T21:28:52;3.20;99.90
48376;DHT22;34178;50.904;11.560;2023-02-02T21:31:18;3.20;99.90
48376;DHT22;34178;50.904;11.560;2023-02-02T21:33:45;3.20;99.90
48376;DHT22;34178;50.904;11.560;2023-02-02T21:37:08;3.30;99.90
48376;DHT22;34178;50.904;11.560;2023-02-02T21:39:34;3.40;99.90
48376;DHT22;34178;50.904;11.560;2023-02-02T21:44:35;3.50;99.90
48376;DHT22;34178;50.904;11.560;2023-02-02T21:47:01;3.60;99.90
48376;DHT22;34178;50.904;11.560;2023-02-02T21:49:34;3.60;99.90
48376;DHT22;34178;50.904;11.560;2023-02-02T21:52:13;3.60;99.90
48376;DHT22;34178;50.904;11.560;2023-02-02T21:54:39;3.70;99.90
48376;DHT22;34178;50.904;11.560;2023-02-02T21:57:20;3.70;99.90
48376;DHT22;34178;50.904;11.560;2023-02-02T21:59:50;3.70;99.90
48376;DHT22;34178;50.904;11.560;2023-02-02T22:02:39;3.70;99.90
48376;DHT22;34178;50.904;11.560;2023-02-02T22:05:23;3.60;99.90
48376;DHT22;34178;50.904;11.560;2023-02-02T22:07:49;3.60;99.90
48376;DHT22;34178;50.904;11.560;2023-02-02T22:10:37;3.60;99.90
48376;DHT22;34178;50.904;11.560;2023-02-02T22:13:20;3.60;99.90
48376;DHT22;34178;50.904;11.560;2023-02-02T22:15:49;3.60;99.90
48376;DHT22;34178;50.904;11.560;2023-02-02T22:18:20;3.60;99.90
48376;DHT22;34178;50.904;11.560;2023-02-02T22:20:47;3.60;99.90
48376;DHT22;34178;50.904;11.560;2023-02-02T22:23:17;3.60;99.90
48376;DHT22;34178;50.904;11.560;2023-02-02T22:25:44;3.70;99.90
48376;DHT22;34178;50.904;11.560;2023-02-02T22:30:42;3.70;99.90
48376;DHT22;34178;50.904;11.560;2023-02-02T22:33:10;3.70;99.90
48376;DHT22;34178;50.904;11.560;2023-02-02T22:35:36;3.70;99.90
48376;DHT22;34178;50.904;11.560;2023-02-02T22:38:03;3.60;99.90
48376;DHT22;34178;50.904;11.560;2023-02-02T22:40:29;3.60;99.90
48376;DHT22;34178;50.904;11.560;2023-02-02T22:42:57;3.60;99.90
48376;DHT22;34178;50.904;11.560;2023-02-02T22:45:23;3.50;99.90
48376;DHT22;34178;50.904;11.560;2023-02-02T22:47:50;3.50;99.90
48376;DHT22;34178;50.904;11.560;2023-02-02T22:50:23;3.60;99.90
48376;DHT22;34178;50.904;11.560;2023-02-02T22:52:49;3.60;99.90
48376;DHT22;34178;50.904;11.560;2023-02-02T22:55:15;3.60;99.90
48376;DHT22;34178;50.904;11.560;2023-02-02T22:57:42;3.60;99.90
48376;DHT22;34178;50.904;11.560;2023-02-02T23:00:14;3.60;99.90
48376;DHT22;34178;50.904;11.560;2023-02-02T23:02:40;3.50;99.90
48376;DHT22;34178;50.904;11.560;2023-02-02T23:05:09;3.60;99.90
48376;DHT22;34178;50.904;11.560;2023-02-02T23:07:35;3.50;99.90
48376;DHT22;34178;50.904;11.560;2023-02-02T23:10:01;3.60;99.90
48376;DHT22;34178;50.904;11.560;2023-02-02T23:12:27;3.60;99.90
48376;DHT22;34178;50.904;11.560;2023-02-02T23:14:53;3.60;99.90
48376;DHT22;34178;50.904;11.560;2023-02-02T23:17:19;3.50;99.90
48376;DHT22;34178;50.904;11.560;2023-02-02T23:19:44;3.50;99.90
48376;DHT22;34178;50.904;11.560;2023-02-02T23:22:10;3.60;99.90
48376;DHT22;34178;50.904;11.560;2023-02-02T23:24:36;3.60;99.90
48376;DHT22;34178;50.904;11.560;2023-02-02T23:27:01;3.60;99.90
48376;DHT22;34178;50.904;11.560;2023-02-02T23:29:27;3.60;99.90
48376;DHT22;34178;50.904;11.560;2023-02-02T23:31:53;3.60;99.90
48376;DHT22;34178;50.904;11.560;2023-02-02T23:34:18;3.60;99.90
48376;DHT22;34178;50.904;11.560;2023-02-02T23:36:44;3.60;99.90